sensor_id;sensor_type;location;lat;lon;timestamp;temperature;humidity
2062;DHT22;11070;51.336;12.340;2023-06-26T00:01:23;20.30;99.90
2062;DHT22;11070;51.336;12.340;2023-06-26T00:03:49;20.30;99.90
2062;DHT22;11070;51.336;12.340;2023-06-26T00:06:14;20.20;99.90
2062;DHT22;11070;51.336;12.340;2023-06-26T00:08:40;20.20;99.90
2062;DHT22;11070;51.336;12.340;2023-06-26T00:11:06;20.10;99.90
2062;DHT22;11070;51.336;12.340;2023-06-26T00:13:32;20.10;99.90
2062;DHT22;11070;51.336;12.340;2023-06-26T00:15:57;20.00;99.90
2062;DHT22;11070;51.336;12.340;2023-06-26T00:18:23;20.00;99.90
2062;DHT22;11070;51.336;12.340;2023-06-26T00:20:49;19.90;99.90
2062;DHT22;11070;51.336;12.340;2023-06-26T00:23:16;19.90;99.90
2062;DHT22;11070;51.336;12.340;2023-06-26T00:25:43;19.80;99.90
2062;DHT22;11070;51.336;12.340;2023-06-26T00:28:09;19.80;99.90
2062;DHT22;11070;51.336;12.340;2023-06-26T00:30:35;19.90;99.90
2062;DHT22;11070;51.336;12.340;2023-06-26T00:33:01;19.90;99.90
2062;DHT22;11070;51.336;12.340;2023-06-26T00:35:27;19.90;99.90
2062;DHT22;11070;51.336;12.340;2023-06-26T00:37:52;19.80;99.90
2062;DHT22;11070;51.336;12.340;2023-06-26T00:40:18;19.80;99.90
2062;DHT22;11070;51.336;12.340;2023-06-26T00:42:44;19.80;99.90
2062;DHT22;11070;51.336;12.340;2023-06-26T00:45:09;19.80;99.90
2062;DHT22;11070;51.336;12.340;2023-06-26T00:47:35;19.70;99.90
2062;DHT22;11070;51.336;12.340;2023-06-26T00:50:01;19.60;99.90
2062;DHT22;11070;51.336;12.340;2023-06-26T00:52:27;19.60;99.90
2062;DHT22;11070;51.336;12.340;2023-06-26T00:54:53;19.60;99.90
2062;DHT22;11070;51.336;12.340;2023-06-26T00:57:19;19.60;99.90
2062;DHT22;11070;51.336;12.340;2023-06-26T00:59:45;19.50;99.90
2062;DHT22;11070;51.336;12.340;2023-06-26T01:02:10;19.50;99.90
2062;DHT22;11070;51.336;12.340;2023-06-26T01:04:36;19.50;99.90
2062;DHT22;11070;51.336;12.340;2023-06-26T01:07:03;19.50;99.90
2062;DHT22;11070;51.336;12.340;2023-06-26T01:09:29;19.50;99.90
2062;DHT22;11070;51.336;12.340;2023-06-26T01:11:56;19.50;99.90
2062;DHT22;11070;51.336;12.340;2023-06-26T01:14:22;19.50;99.90
2062;DHT22;11070;51.336;12.340;2023-06-26T01:16:49;19.50;99.90
2062;DHT22;11070;51.336;12.340;2023-06-26T01:19:20;19.50;99.90
2062;DHT22;11070;51.336;12.340;2023-06-26T01:21:54;19.50;99.90
2062;DHT22;11070;51.336;12.340;2023-06-26T01:24:22;19.40;99.90
2062;DHT22;11070;51.336;12.340;2023-06-26T01:26:53;19.40;99.90
2062;DHT22;11070;51.336;12.340;2023-06-26T01:29:19;19.40;99.90
2062;DHT22;11070;51.336;12.340;2023-06-26T01:31:49;19.40;99.90
2062;DHT22;11070;51.336;12.340;2023-06-26T01:34:16;19.40;99.90
2062;DHT22;11070;51.336;12.340;2023-06-26T01:36:44;19.40;99.90
2062;DHT22;11070;51.336;12.340;2023-06-26T01:39:14;19.30;99.90
2062;DHT22;11070;51.336;12.340;2023-06-26T01:41:40;19.20;99.90
2062;DHT22;11070;51.336;12.340;2023-06-26T01:46:55;19.10;99.90
2062;DHT22;11070;51.336;12.340;2023-06-26T01:57:45;19.10;99.90
2062;DHT22;11070;51.336;12.340;2023-06-26T02:00:15;19.00;99.90
2062;DHT22;11070;51.336;12.340;2023-06-26T02:02:43;19.00;99.90
2062;DHT22;11070;51.336;12.340;2023-06-26T02:05:10;19.00;99.90
2062;DHT22;11070;51.336;12.340;2023-06-26T02:07:35;19.00;99.90
2062;DHT22;11070;51.336;12.340;2023-06-26T02:10:02;19.00;99.90
2062;DHT22;11070;51.336;12.340;2023-06-26T02:12:28;18.90;99.90
2062;DHT22;11070;51.336;12.340;2023-06-26T02:14:53;18.90;99.90
2062;DHT22;11070;51.336;12.340;2023-06-26T02:17:19;18.90;99.90
2062;DHT22;11070;51.336;12.340;2023-06-26T02:19:45;18.80;99.90
2062;DHT22;11070;51.336;12.340;2023-06-26T02:22:14;18.70;99.90
2062;DHT22;11070;51.336;12.340;2023-06-26T02:24:40;18.70;99.90
2062;DHT22;11070;51.336;12.340;2023-06-26T02:27:06;18.60;99.90
2062;DHT22;11070;51.336;12.340;2023-06-26T02:29:32;18.60;99.90
2062;DHT22;11070;51.336;12.340;2023-06-26T02:31:57;18.70;99.90
2062;DHT22;11070;51.336;12.340;2023-06-26T02:34:23;18.60;99.90
2062;DHT22;11070;51.336;12.340;2023-06-26T02:36:49;18.60;99.90
2062;DHT22;11070;51.336;12.340;2023-06-26T02:39:15;18.60;99.90
2062;DHT22;11070;51.336;12.340;2023-06-26T02:41:40;18.60;99.90
2062;DHT22;11070;51.336;12.340;2023-06-26T02:44:06;18.50;99.90
2062;DHT22;11070;51.336;12.340;2023-06-26T02:46:32;18.50;99.90
2062;DHT22;11070;51.336;12.340;2023-06-26T02:48:59;18.50;99.90
2062;DHT22;11070;51.336;12.340;2023-06-26T02:51:24;18.50;99.90
2062;DHT22;11070;51.336;12.340;2023-06-26T02:53:50;18.50;99.90
2062;DHT22;11070;51.336;12.340;2023-06-26T02:56:16;18.50;99.90
2062;DHT22;11070;51.336;12.340;2023-06-26T02:58:41;18.60;99.90
2062;DHT22;11070;51.336;12.340;2023-06-26T03:01:07;18.50;99.90
2062;DHT22;11070;51.336;12.340;2023-06-26T03:03:33;18.50;99.90
2062;DHT22;11070;51.336;12.340;2023-06-26T03:06:06;18.50;99.90
2062;DHT22;11070;51.336;12.340;2023-06-26T03:08:32;18.60;99.90
2062;DHT22;11070;51.336;12.340;2023-06-26T03:10:58;18.60;99.90
2062;DHT22;11070;51.336;12.340;2023-06-26T03:13:24;18.60;99.90
2062;DHT22;11070;51.336;12.340;2023-06-26T03:15:50;18.60;99.90
2062;DHT22;11070;51.336;12.340;2023-06-26T03:18:16;18.50;99.90
2062;DHT22;11070;51.336;12.340;2023-06-26T03:20:42;18.50;99.90
2062;DHT22;11070;51.336;12.340;2023-06-26T03:23:07;18.50;99.90
2062;DHT22;11070;51.336;12.340;2023-06-26T03:25:33;18.50;99.90
2062;DHT22;11070;51.336;12.340;2023-06-26T03:27:58;18.60;99.90
2062;DHT22;11070;51.336;12.340;2023-06-26T03:30:24;18.60;99.90
2062;DHT22;11070;51.336;12.340;2023-06-26T03:32:50;18.60;99.90
2062;DHT22;11070;51.336;12.340;2023-06-26T03:35:15;18.80;99.90
2062;DHT22;11070;51.336;12.340;2023-06-26T03:37:41;18.80;99.90
2062;DHT22;11070;51.336;12.340;2023-06-26T03:40:07;18.80;99.90
2062;DHT22;11070;51.336;12.340;2023-06-26T03:42:33;18.70;99.90
2062;DHT22;11070;51.336;12.340;2023-06-26T03:44:59;18.70;99.90
2062;DHT22;11070;51.336;12.340;2023-06-26T03:47:24;18.60;99.90
2062;DHT22;11070;51.336;12.340;2023-06-26T03:49:50;18.70;99.90
2062;DHT22;11070;51.336;12.340;2023-06-26T03:52:16;18.70;99.90
2062;DHT22;11070;51.336;12.340;2023-06-26T03:54:41;18.80;99.90
2062;DHT22;11070;51.336;12.340;2023-06-26T03:57:07;18.80;99.90
2062;DHT22;11070;51.336;12.340;2023-06-26T03:59:33;18.80;99.90
2062;DHT22;11070;51.336;12.340;2023-06-26T04:01:58;18.90;99.90
2062;DHT22;11070;51.336;12.340;2023-06-26T04:04:24;19.00;99.90
2062;DHT22;11070;51.336;12.340;2023-06-26T04:06:50;19.00;99.90
2062;DHT22;11070;51.336;12.340;2023-06-26T04:09:16;19.10;99.90
2062;DHT22;11070;51.336;12.340;2023-06-26T04:11:42;19.10;99.90
2062;DHT22;11070;51.336;12.340;2023-06-26T04:14:08;19.10;99.90
2062;DHT22;11070;51.336;12.340;2023-06-26T04:16:33;19.20;99.90
2062;DHT22;11070;51.336;12.340;2023-06-26T04:18:59;19.30;99.90
2062;DHT22;11070;51.336;12.340;2023-06-26T04:21:24;19.40;99.90
2062;DHT22;11070;51.336;12.340;2023-06-26T04:23:50;19.30;99.90
2062;DHT22;11070;51.336;12.340;2023-06-26T04:26:16;19.40;99.90
2062;DHT22;11070;51.336;12.340;2023-06-26T04:28:42;19.50;99.90
2062;DHT22;11070;51.336;12.340;2023-06-26T04:31:08;19.60;99.90
2062;DHT22;11070;51.336;12.340;2023-06-26T04:33:35;19.60;99.90
2062;DHT22;11070;51.336;12.340;2023-06-26T04:36:04;19.70;99.90
2062;DHT22;11070;51.336;12.340;2023-06-26T04:38:31;19.70;99.90
2062;DHT22;11070;51.336;12.340;2023-06-26T04:40:57;19.90;99.90
2062;DHT22;11070;51.336;12.340;2023-06-26T04:43:22;19.90;99.90
2062;DHT22;11070;51.336;12.340;2023-06-26T04:45:48;20.00;99.90
2062;DHT22;11070;51.336;12.340;2023-06-26T04:48:13;20.10;99.90
2062;DHT22;11070;51.336;12.340;2023-06-26T04:50:39;20.20;99.90
2062;DHT22;11070;51.336;12.340;2023-06-26T04:53:05;20.30;99.90
2062;DHT22;11070;51.336;12.340;2023-06-26T04:55:31;20.40;99.90
2062;DHT22;11070;51.336;12.340;2023-06-26T04:57:57;20.40;99.90
2062;DHT22;11070;51.336;12.340;2023-06-26T05:00:22;20.50;99.90
2062;DHT22;11070;51.336;12.340;2023-06-26T05:02:50;20.50;99.90
2062;DHT22;11070;51.336;12.340;2023-06-26T05:05:26;20.60;99.90
2062;DHT22;11070;51.336;12.340;2023-06-26T05:07:53;20.60;99.90
2062;DHT22;11070;51.336;12.340;2023-06-26T05:10:19;20.70;99.90
2062;DHT22;11070;51.336;12.340;2023-06-26T05:12:45;20.80;99.90
2062;DHT22;11070;51.336;12.340;2023-06-26T05:15:11;20.80;99.90
2062;DHT22;11070;51.336;12.340;2023-06-26T05:17:36;20.90;99.90
2062;DHT22;11070;51.336;12.340;2023-06-26T05:20:02;20.90;99.90
2062;DHT22;11070;51.336;12.340;2023-06-26T05:22:29;21.00;99.90
2062;DHT22;11070;51.336;12.340;2023-06-26T05:24:55;21.10;99.90
2062;DHT22;11070;51.336;12.340;2023-06-26T05:27:24;21.20;99.90
2062;DHT22;11070;51.336;12.340;2023-06-26T05:29:50;21.30;99.90
2062;DHT22;11070;51.336;12.340;2023-06-26T05:32:17;21.30;99.90
2062;DHT22;11070;51.336;12.340;2023-06-26T05:34:49;21.50;99.90
2062;DHT22;11070;51.336;12.340;2023-06-26T05:37:21;21.50;99.90
2062;DHT22;11070;51.336;12.340;2023-06-26T05:39:47;21.60;99.90
2062;DHT22;11070;51.336;12.340;2023-06-26T05:42:13;21.60;99.90
2062;DHT22;11070;51.336;12.340;2023-06-26T05:44:39;21.60;99.90
2062;DHT22;11070;51.336;12.340;2023-06-26T05:47:05;21.70;99.90
2062;DHT22;11070;51.336;12.340;2023-06-26T05:49:31;21.80;99.90
2062;DHT22;11070;51.336;12.340;2023-06-26T05:51:57;21.90;99.90
2062;DHT22;11070;51.336;12.340;2023-06-26T05:54:24;22.00;99.90
2062;DHT22;11070;51.336;12.340;2023-06-26T05:56:52;22.00;99.90
2062;DHT22;11070;51.336;12.340;2023-06-26T05:59:22;22.00;99.90
2062;DHT22;11070;51.336;12.340;2023-06-26T06:01:47;22.10;99.90
2062;DHT22;11070;51.336;12.340;2023-06-26T06:04:13;22.10;99.90
2062;DHT22;11070;51.336;12.340;2023-06-26T06:06:39;22.20;99.90
2062;DHT22;11070;51.336;12.340;2023-06-26T06:09:04;22.20;99.90
2062;DHT22;11070;51.336;12.340;2023-06-26T06:11:30;22.10;99.90
2062;DHT22;11070;51.336;12.340;2023-06-26T06:13:56;22.10;99.90
2062;DHT22;11070;51.336;12.340;2023-06-26T06:16:21;22.20;99.90
2062;DHT22;11070;51.336;12.340;2023-06-26T06:18:47;22.20;99.90
2062;DHT22;11070;51.336;12.340;2023-06-26T06:21:12;22.40;99.90
2062;DHT22;11070;51.336;12.340;2023-06-26T06:23:38;22.60;99.90
2062;DHT22;11070;51.336;12.340;2023-06-26T06:26:04;22.80;99.90
2062;DHT22;11070;51.336;12.340;2023-06-26T06:28:29;22.90;99.90
2062;DHT22;11070;51.336;12.340;2023-06-26T06:30:55;23.10;99.90
2062;DHT22;11070;51.336;12.340;2023-06-26T06:33:21;23.20;99.90
2062;DHT22;11070;51.336;12.340;2023-06-26T06:35:46;23.20;99.90
2062;DHT22;11070;51.336;12.340;2023-06-26T06:38:12;23.40;99.90
2062;DHT22;11070;51.336;12.340;2023-06-26T06:40:38;23.60;99.90
2062;DHT22;11070;51.336;12.340;2023-06-26T06:43:03;23.70;99.90
2062;DHT22;11070;51.336;12.340;2023-06-26T06:45:29;23.70;99.90
2062;DHT22;11070;51.336;12.340;2023-06-26T06:47:55;23.80;99.90
2062;DHT22;11070;51.336;12.340;2023-06-26T06:50:21;23.90;99.90
2062;DHT22;11070;51.336;12.340;2023-06-26T06:52:46;24.10;99.90
2062;DHT22;11070;51.336;12.340;2023-06-26T06:55:12;24.30;99.90
2062;DHT22;11070;51.336;12.340;2023-06-26T06:57:39;24.20;99.90
2062;DHT22;11070;51.336;12.340;2023-06-26T07:00:06;24.30;99.90
2062;DHT22;11070;51.336;12.340;2023-06-26T07:02:39;24.60;99.90
2062;DHT22;11070;51.336;12.340;2023-06-26T07:05:05;24.70;99.90
2062;DHT22;11070;51.336;12.340;2023-06-26T07:07:33;24.70;99.90
2062;DHT22;11070;51.336;12.340;2023-06-26T07:10:00;24.70;99.90
2062;DHT22;11070;51.336;12.340;2023-06-26T07:12:26;24.70;99.90
2062;DHT22;11070;51.336;12.340;2023-06-26T07:14:52;24.60;99.90
2062;DHT22;11070;51.336;12.340;2023-06-26T07:17:19;24.80;99.90
2062;DHT22;11070;51.336;12.340;2023-06-26T07:19:45;25.20;99.90
2062;DHT22;11070;51.336;12.340;2023-06-26T07:22:11;25.60;99.90
2062;DHT22;11070;51.336;12.340;2023-06-26T07:24:37;25.90;99.90
2062;DHT22;11070;51.336;12.340;2023-06-26T07:27:03;26.00;99.90
2062;DHT22;11070;51.336;12.340;2023-06-26T07:29:29;25.90;99.90
2062;DHT22;11070;51.336;12.340;2023-06-26T07:31:54;25.90;99.90
2062;DHT22;11070;51.336;12.340;2023-06-26T07:34:20;26.10;99.90
2062;DHT22;11070;51.336;12.340;2023-06-26T07:36:45;26.00;99.90
2062;DHT22;11070;51.336;12.340;2023-06-26T07:39:11;26.20;99.90
2062;DHT22;11070;51.336;12.340;2023-06-26T07:41:37;26.30;99.90
2062;DHT22;11070;51.336;12.340;2023-06-26T07:44:02;26.60;99.90
2062;DHT22;11070;51.336;12.340;2023-06-26T07:46:28;26.70;99.90
2062;DHT22;11070;51.336;12.340;2023-06-26T07:48:54;26.40;99.90
2062;DHT22;11070;51.336;12.340;2023-06-26T07:51:20;26.30;99.90
2062;DHT22;11070;51.336;12.340;2023-06-26T07:53:46;26.40;99.90
2062;DHT22;11070;51.336;12.340;2023-06-26T07:56:11;26.80;99.90
2062;DHT22;11070;51.336;12.340;2023-06-26T07:58:37;27.00;99.90
2062;DHT22;11070;51.336;12.340;2023-06-26T08:01:03;27.00;99.90
2062;DHT22;11070;51.336;12.340;2023-06-26T08:03:28;26.90;99.90
2062;DHT22;11070;51.336;12.340;2023-06-26T08:05:54;26.80;99.90
2062;DHT22;11070;51.336;12.340;2023-06-26T08:08:20;26.70;99.90
2062;DHT22;11070;51.336;12.340;2023-06-26T08:10:46;26.80;99.90
2062;DHT22;11070;51.336;12.340;2023-06-26T08:13:11;27.30;99.90
2062;DHT22;11070;51.336;12.340;2023-06-26T08:15:37;27.60;99.90
2062;DHT22;11070;51.336;12.340;2023-06-26T08:18:03;27.60;99.90
2062;DHT22;11070;51.336;12.340;2023-06-26T08:20:28;27.50;99.90
2062;DHT22;11070;51.336;12.340;2023-06-26T08:22:55;27.60;99.90
2062;DHT22;11070;51.336;12.340;2023-06-26T08:25:20;28.00;99.90
2062;DHT22;11070;51.336;12.340;2023-06-26T08:27:46;28.00;98.20
2062;DHT22;11070;51.336;12.340;2023-06-26T08:30:12;28.10;98.40
2062;DHT22;11070;51.336;12.340;2023-06-26T08:32:39;28.40;96.70
2062;DHT22;11070;51.336;12.340;2023-06-26T08:35:06;28.40;96.50
2062;DHT22;11070;51.336;12.340;2023-06-26T08:37:32;28.40;95.30
2062;DHT22;11070;51.336;12.340;2023-06-26T08:39:59;28.80;94.80
2062;DHT22;11070;51.336;12.340;2023-06-26T08:42:25;28.70;94.90
2062;DHT22;11070;51.336;12.340;2023-06-26T08:44:51;29.20;93.70
2062;DHT22;11070;51.336;12.340;2023-06-26T08:47:18;29.20;91.90
2062;DHT22;11070;51.336;12.340;2023-06-26T08:50:07;29.40;90.70
2062;DHT22;11070;51.336;12.340;2023-06-26T08:52:38;29.60;90.00
2062;DHT22;11070;51.336;12.340;2023-06-26T08:55:10;29.60;86.80
2062;DHT22;11070;51.336;12.340;2023-06-26T08:57:37;29.60;87.50
2062;DHT22;11070;51.336;12.340;2023-06-26T09:00:03;29.40;84.90
2062;DHT22;11070;51.336;12.340;2023-06-26T09:02:29;29.60;85.70
2062;DHT22;11070;51.336;12.340;2023-06-26T09:04:56;29.90;85.70
2062;DHT22;11070;51.336;12.340;2023-06-26T09:07:21;30.50;81.00
2062;DHT22;11070;51.336;12.340;2023-06-26T09:09:47;30.40;79.70
2062;DHT22;11070;51.336;12.340;2023-06-26T09:12:13;30.50;80.20
2062;DHT22;11070;51.336;12.340;2023-06-26T09:14:39;30.70;78.40
2062;DHT22;11070;51.336;12.340;2023-06-26T09:17:06;31.00;76.00
2062;DHT22;11070;51.336;12.340;2023-06-26T09:19:32;30.60;75.80
2062;DHT22;11070;51.336;12.340;2023-06-26T09:21:58;30.50;77.90
2062;DHT22;11070;51.336;12.340;2023-06-26T09:24:23;30.10;75.70
2062;DHT22;11070;51.336;12.340;2023-06-26T09:26:51;30.00;78.40
2062;DHT22;11070;51.336;12.340;2023-06-26T09:29:17;29.90;76.10
2062;DHT22;11070;51.336;12.340;2023-06-26T09:31:44;30.60;74.90
2062;DHT22;11070;51.336;12.340;2023-06-26T09:34:10;30.50;73.90
2062;DHT22;11070;51.336;12.340;2023-06-26T09:36:36;30.80;71.90
2062;DHT22;11070;51.336;12.340;2023-06-26T09:39:03;31.20;71.50
2062;DHT22;11070;51.336;12.340;2023-06-26T09:41:30;31.60;70.90
2062;DHT22;11070;51.336;12.340;2023-06-26T09:44:00;31.70;67.90
2062;DHT22;11070;51.336;12.340;2023-06-26T09:46:27;31.70;68.00
2062;DHT22;11070;51.336;12.340;2023-06-26T09:49:09;31.80;66.70
2062;DHT22;11070;51.336;12.340;2023-06-26T09:51:39;32.10;65.80
2062;DHT22;11070;51.336;12.340;2023-06-26T09:54:06;32.30;64.40
2062;DHT22;11070;51.336;12.340;2023-06-26T09:56:33;32.70;62.40
2062;DHT22;11070;51.336;12.340;2023-06-26T09:59:03;32.70;61.60
2062;DHT22;11070;51.336;12.340;2023-06-26T10:01:30;32.40;61.50
2062;DHT22;11070;51.336;12.340;2023-06-26T10:03:57;32.30;59.00
2062;DHT22;11070;51.336;12.340;2023-06-26T10:06:31;32.00;59.90
2062;DHT22;11070;51.336;12.340;2023-06-26T10:09:00;32.00;60.60
2062;DHT22;11070;51.336;12.340;2023-06-26T10:11:32;32.50;60.10
2062;DHT22;11070;51.336;12.340;2023-06-26T10:14:01;32.70;59.10
2062;DHT22;11070;51.336;12.340;2023-06-26T10:16:30;32.70;59.00
2062;DHT22;11070;51.336;12.340;2023-06-26T10:19:02;33.10;57.70
2062;DHT22;11070;51.336;12.340;2023-06-26T10:21:32;33.50;56.40
2062;DHT22;11070;51.336;12.340;2023-06-26T10:24:01;34.30;53.60
2062;DHT22;11070;51.336;12.340;2023-06-26T10:26:29;34.30;53.40
2062;DHT22;11070;51.336;12.340;2023-06-26T10:28:56;34.00;52.90
2062;DHT22;11070;51.336;12.340;2023-06-26T10:31:26;33.40;53.30
2062;DHT22;11070;51.336;12.340;2023-06-26T10:33:52;32.90;53.60
2062;DHT22;11070;51.336;12.340;2023-06-26T10:36:30;32.20;55.10
2062;DHT22;11070;51.336;12.340;2023-06-26T10:39:04;32.60;55.40
2062;DHT22;11070;51.336;12.340;2023-06-26T10:41:40;33.10;54.00
2062;DHT22;11070;51.336;12.340;2023-06-26T10:44:10;33.20;55.40
2062;DHT22;11070;51.336;12.340;2023-06-26T10:46:49;34.10;56.70
2062;DHT22;11070;51.336;12.340;2023-06-26T10:49:16;34.20;51.80
2062;DHT22;11070;51.336;12.340;2023-06-26T10:51:49;32.30;52.50
2062;DHT22;11070;51.336;12.340;2023-06-26T10:54:16;32.10;53.90
2062;DHT22;11070;51.336;12.340;2023-06-26T10:56:48;32.30;53.70
2062;DHT22;11070;51.336;12.340;2023-06-26T10:59:19;32.60;53.60
2062;DHT22;11070;51.336;12.340;2023-06-26T11:02:02;32.60;53.00
2062;DHT22;11070;51.336;12.340;2023-06-26T11:04:45;31.80;54.60
2062;DHT22;11070;51.336;12.340;2023-06-26T11:15:01;33.30;52.20
2062;DHT22;11070;51.336;12.340;2023-06-26T11:17:27;33.50;52.00
2062;DHT22;11070;51.336;12.340;2023-06-26T11:19:55;34.20;51.10
2062;DHT22;11070;51.336;12.340;2023-06-26T11:22:21;34.60;49.70
2062;DHT22;11070;51.336;12.340;2023-06-26T11:24:52;34.50;49.50
2062;DHT22;11070;51.336;12.340;2023-06-26T11:27:19;34.10;49.60
2062;DHT22;11070;51.336;12.340;2023-06-26T11:29:48;33.70;49.40
2062;DHT22;11070;51.336;12.340;2023-06-26T11:32:15;33.90;49.40
2062;DHT22;11070;51.336;12.340;2023-06-26T11:34:40;34.20;49.00
2062;DHT22;11070;51.336;12.340;2023-06-26T11:37:08;34.10;49.20
2062;DHT22;11070;51.336;12.340;2023-06-26T11:39:34;34.30;49.50
2062;DHT22;11070;51.336;12.340;2023-06-26T11:42:00;34.90;48.70
2062;DHT22;11070;51.336;12.340;2023-06-26T11:44:30;34.50;49.10
2062;DHT22;11070;51.336;12.340;2023-06-26T11:46:57;33.70;49.10
2062;DHT22;11070;51.336;12.340;2023-06-26T11:49:23;33.50;49.40
2062;DHT22;11070;51.336;12.340;2023-06-26T11:51:51;32.80;50.40
2062;DHT22;11070;51.336;12.340;2023-06-26T11:54:27;33.00;51.40
2062;DHT22;11070;51.336;12.340;2023-06-26T11:56:55;33.40;50.70
2062;DHT22;11070;51.336;12.340;2023-06-26T11:59:22;33.50;50.90
2062;DHT22;11070;51.336;12.340;2023-06-26T12:01:50;33.90;50.80
2062;DHT22;11070;51.336;12.340;2023-06-26T12:04:19;33.80;49.30
2062;DHT22;11070;51.336;12.340;2023-06-26T12:06:48;33.80;50.20
2062;DHT22;11070;51.336;12.340;2023-06-26T12:09:14;33.60;48.70
2062;DHT22;11070;51.336;12.340;2023-06-26T12:11:42;33.20;49.20
2062;DHT22;11070;51.336;12.340;2023-06-26T12:14:09;32.80;50.10
2062;DHT22;11070;51.336;12.340;2023-06-26T12:16:36;33.10;50.00
2062;DHT22;11070;51.336;12.340;2023-06-26T12:19:04;33.10;49.90
2062;DHT22;11070;51.336;12.340;2023-06-26T12:24:02;32.90;50.90
2062;DHT22;11070;51.336;12.340;2023-06-26T12:26:29;32.60;50.90
2062;DHT22;11070;51.336;12.340;2023-06-26T12:29:10;32.80;51.20
2062;DHT22;11070;51.336;12.340;2023-06-26T12:31:41;32.90;50.70
2062;DHT22;11070;51.336;12.340;2023-06-26T12:34:11;33.50;51.20
2062;DHT22;11070;51.336;12.340;2023-06-26T12:36:42;34.70;49.40
2062;DHT22;11070;51.336;12.340;2023-06-26T12:39:11;35.50;47.60
2062;DHT22;11070;51.336;12.340;2023-06-26T12:41:52;35.70;47.00
2062;DHT22;11070;51.336;12.340;2023-06-26T12:44:26;34.70;46.60
2062;DHT22;11070;51.336;12.340;2023-06-26T12:47:00;34.10;47.20
2062;DHT22;11070;51.336;12.340;2023-06-26T12:49:36;33.40;48.10
2062;DHT22;11070;51.336;12.340;2023-06-26T12:52:13;33.20;48.20
2062;DHT22;11070;51.336;12.340;2023-06-26T12:54:42;33.10;48.80
2062;DHT22;11070;51.336;12.340;2023-06-26T12:57:08;33.10;49.10
2062;DHT22;11070;51.336;12.340;2023-06-26T12:59:36;32.90;48.90
2062;DHT22;11070;51.336;12.340;2023-06-26T13:02:02;32.90;49.00
2062;DHT22;11070;51.336;12.340;2023-06-26T13:04:28;33.30;49.00
2062;DHT22;11070;51.336;12.340;2023-06-26T13:06:54;34.10;48.20
2062;DHT22;11070;51.336;12.340;2023-06-26T13:09:20;34.50;46.80
2062;DHT22;11070;51.336;12.340;2023-06-26T13:11:46;33.60;47.30
2062;DHT22;11070;51.336;12.340;2023-06-26T13:14:12;32.90;48.30
2062;DHT22;11070;51.336;12.340;2023-06-26T13:16:39;32.50;49.40
2062;DHT22;11070;51.336;12.340;2023-06-26T13:19:04;32.40;49.70
2062;DHT22;11070;51.336;12.340;2023-06-26T13:21:30;32.50;49.40
2062;DHT22;11070;51.336;12.340;2023-06-26T13:23:56;32.40;49.00
2062;DHT22;11070;51.336;12.340;2023-06-26T13:26:23;32.90;48.70
2062;DHT22;11070;51.336;12.340;2023-06-26T13:28:50;33.70;47.90
2062;DHT22;11070;51.336;12.340;2023-06-26T13:31:16;33.90;47.70
2062;DHT22;11070;51.336;12.340;2023-06-26T13:33:42;33.60;47.60
2062;DHT22;11070;51.336;12.340;2023-06-26T13:36:08;34.10;48.50
2062;DHT22;11070;51.336;12.340;2023-06-26T13:38:34;34.60;46.50
2062;DHT22;11070;51.336;12.340;2023-06-26T13:41:00;33.80;46.80
2062;DHT22;11070;51.336;12.340;2023-06-26T13:43:27;33.30;46.50
2062;DHT22;11070;51.336;12.340;2023-06-26T13:45:53;33.20;46.90
2062;DHT22;11070;51.336;12.340;2023-06-26T13:48:19;33.30;47.20
2062;DHT22;11070;51.336;12.340;2023-06-26T13:50:45;33.40;47.70
2062;DHT22;11070;51.336;12.340;2023-06-26T13:53:11;33.60;47.40
2062;DHT22;11070;51.336;12.340;2023-06-26T13:55:37;33.60;48.30
2062;DHT22;11070;51.336;12.340;2023-06-26T13:58:04;33.10;47.90
2062;DHT22;11070;51.336;12.340;2023-06-26T14:00:35;32.90;47.90
2062;DHT22;11070;51.336;12.340;2023-06-26T14:03:01;32.80;48.40
2062;DHT22;11070;51.336;12.340;2023-06-26T14:05:31;32.90;48.50
2062;DHT22;11070;51.336;12.340;2023-06-26T14:07:56;32.90;50.90
2062;DHT22;11070;51.336;12.340;2023-06-26T14:10:23;32.00;61.80
2062;DHT22;11070;51.336;12.340;2023-06-26T14:12:49;31.10;73.60
2062;DHT22;11070;51.336;12.340;2023-06-26T14:15:15;30.00;83.20
2062;DHT22;11070;51.336;12.340;2023-06-26T14:17:41;29.10;93.00
2062;DHT22;11070;51.336;12.340;2023-06-26T14:20:07;28.30;99.90
2062;DHT22;11070;51.336;12.340;2023-06-26T14:22:39;28.10;99.90
2062;DHT22;11070;51.336;12.340;2023-06-26T14:25:06;27.70;99.90
2062;DHT22;11070;51.336;12.340;2023-06-26T14:27:31;27.80;99.90
2062;DHT22;11070;51.336;12.340;2023-06-26T14:29:57;28.00;99.90
2062;DHT22;11070;51.336;12.340;2023-06-26T14:32:23;27.90;99.90
2062;DHT22;11070;51.336;12.340;2023-06-26T14:34:48;27.90;99.90
2062;DHT22;11070;51.336;12.340;2023-06-26T14:37:14;28.00;99.90
2062;DHT22;11070;51.336;12.340;2023-06-26T14:39:40;28.20;99.90
2062;DHT22;11070;51.336;12.340;2023-06-26T14:42:06;28.30;99.90
2062;DHT22;11070;51.336;12.340;2023-06-26T14:44:32;28.60;99.90
2062;DHT22;11070;51.336;12.340;2023-06-26T14:46:58;29.00;99.90
2062;DHT22;11070;51.336;12.340;2023-06-26T14:49:23;29.20;99.90
2062;DHT22;11070;51.336;12.340;2023-06-26T14:51:49;29.20;99.90
2062;DHT22;11070;51.336;12.340;2023-06-26T14:54:15;29.10;99.90
2062;DHT22;11070;51.336;12.340;2023-06-26T14:56:40;29.10;99.90
2062;DHT22;11070;51.336;12.340;2023-06-26T14:59:06;29.30;99.90
2062;DHT22;11070;51.336;12.340;2023-06-26T15:01:33;29.40;99.90
2062;DHT22;11070;51.336;12.340;2023-06-26T15:03:59;29.80;99.90
2062;DHT22;11070;51.336;12.340;2023-06-26T15:06:24;29.90;99.90
2062;DHT22;11070;51.336;12.340;2023-06-26T15:08:50;29.90;99.90
2062;DHT22;11070;51.336;12.340;2023-06-26T15:11:17;29.60;99.90
2062;DHT22;11070;51.336;12.340;2023-06-26T15:13:43;29.40;99.90
2062;DHT22;11070;51.336;12.340;2023-06-26T15:16:09;29.20;99.90
2062;DHT22;11070;51.336;12.340;2023-06-26T15:18:35;29.10;99.90
2062;DHT22;11070;51.336;12.340;2023-06-26T15:21:00;29.00;99.90
2062;DHT22;11070;51.336;12.340;2023-06-26T15:23:28;28.80;99.90
2062;DHT22;11070;51.336;12.340;2023-06-26T15:25:54;28.90;99.90
2062;DHT22;11070;51.336;12.340;2023-06-26T15:28:20;29.00;99.90
2062;DHT22;11070;51.336;12.340;2023-06-26T15:30:46;29.30;99.90
2062;DHT22;11070;51.336;12.340;2023-06-26T15:33:12;29.40;99.90
2062;DHT22;11070;51.336;12.340;2023-06-26T15:35:38;29.40;99.90
2062;DHT22;11070;51.336;12.340;2023-06-26T15:38:04;29.50;99.90
2062;DHT22;11070;51.336;12.340;2023-06-26T15:40:30;29.30;99.90
2062;DHT22;11070;51.336;12.340;2023-06-26T15:42:56;29.00;99.90
2062;DHT22;11070;51.336;12.340;2023-06-26T15:45:22;28.60;99.90
2062;DHT22;11070;51.336;12.340;2023-06-26T15:47:50;28.10;99.90
2062;DHT22;11070;51.336;12.340;2023-06-26T15:50:16;27.80;99.90